Time;durP1;ratioP1;P1;durP2;ratioP2;P2;SDS_P1;SDS_P2;PMS_P1;PMS_P2;Temp;Humidity;BMP_temperature;BMP_pressure;BME280_temperature;BME280_humidity;BME280_pressure;Samples;Min_cycle;Max_cycle;Signal;HPM_P1;HPM_P2
2021/08/17 00:02:14;;;;;;;;;10.75;9.25;;;;;27.57;39.18;102064.63;5015072;28;45379;-69
2021/08/17 00:04:40;;;;;;;;;11.00;10.00;;;;;27.57;38.84;102066.47;5015699;28;45293;-69
2021/08/17 00:07:07;;;;;;;;;7.50;7.50;;;;;27.57;39.16;102061.13;5014061;28;45482;-69
2021/08/17 00:09:32;;;;;;;;;7.50;7.50;;;;;27.57;38.96;102061.13;5012634;28;46124;-69
2021/08/17 00:11:58;;;;;;;;;8.75;8.75;;;;;27.56;39.16;102062.16;5011952;28;45444;-69
2021/08/17 00:14:23;;;;;;;;;10.00;8.25;;;;;27.56;39.26;102054.16;5014316;28;45563;-69
2021/08/17 00:16:48;;;;;;;;;10.25;10.25;;;;;27.56;38.63;102060.28;5016034;28;45547;-69
2021/08/17 00:19:14;;;;;;;;;12.00;9.75;;;;;27.56;39.06;102062.16;5013877;28;45395;-69
2021/08/17 00:21:39;;;;;;;;;10.00;8.75;;;;;27.54;38.63;102058.81;5013712;28;45486;-69
2021/08/17 00:24:05;;;;;;;;;8.00;8.00;;;;;27.57;38.86;102066.47;5014174;28;45883;-69
2021/08/17 00:26:30;;;;;;;;;11.00;9.75;;;;;27.57;39.23;102069.16;4996536;28;45579;-69
2021/08/17 00:28:55;;;;;;;;;10.00;8.25;;;;;27.55;38.66;102058.66;5015814;28;45937;-69
2021/08/17 00:31:21;;;;;;;;;11.00;11.00;;;;;27.56;39.23;102060.28;5013614;28;45276;-69
2021/08/17 00:33:46;;;;;;;;;12.50;10.00;;;;;27.57;39.03;102059.28;5013671;28;45459;-69
2021/08/17 00:36:11;;;;;;;;;10.75;7.75;;;;;27.57;38.61;102053.13;5013448;28;45583;-69
2021/08/17 00:38:38;;;;;;;;;7.00;6.00;;;;;27.56;38.77;102046.94;5013728;28;46589;-69
2021/08/17 00:41:06;;;;;;;;;9.50;8.50;;;;;27.57;39.09;102053.13;5015936;28;45384;-69
2021/08/17 00:43:31;;;;;;;;;8.25;7.25;;;;;27.56;38.69;102051.47;5012366;28;45413;-69
2021/08/17 00:45:56;;;;;;;;;10.25;9.25;;;;;27.48;38.58;102034.50;5013502;28;45559;-69
2021/08/17 00:48:22;;;;;;;;;11.25;9.75;;;;;27.56;38.65;102046.94;5012091;28;45339;-69
2021/08/17 00:50:47;;;;;;;;;10.00;8.00;;;;;27.56;38.66;102046.94;5011757;28;45480;-69
2021/08/17 00:53:13;;;;;;;;;10.00;10.00;;;;;27.48;38.63;102031.03;5014700;28;45285;-69
2021/08/17 00:55:39;;;;;;;;;12.00;10.00;;;;;27.54;38.97;102040.94;5014669;28;45476;-69
2021/08/17 00:58:04;;;;;;;;;8.75;8.75;;;;;27.56;38.62;102046.94;5013405;28;46140;-69
2021/08/17 01:00:30;;;;;;;;;7.25;7.25;;;;;27.57;38.72;102043.25;5013458;28;45399;-69
2021/08/17 01:02:55;;;;;;;;;9.00;9.00;;;;;27.57;38.80;102034.41;5013716;28;45469;-69
2021/08/17 01:05:26;;;;;;;;;9.25;7.50;;;;;27.57;38.55;102037.91;4997131;28;45400;-69
2021/08/17 01:07:52;;;;;;;;;8.75;8.75;;;;;27.57;39.13;102037.06;5015190;28;46204;-69
2021/08/17 01:10:17;;;;;;;;;9.50;7.50;;;;;27.58;38.89;102038.75;5012984;28;45394;-69
2021/08/17 01:12:43;;;;;;;;;9.00;7.00;;;;;27.49;38.65;102025.50;5013398;28;45402;-69
2021/08/17 01:15:11;;;;;;;;;9.50;9.50;;;;;27.58;38.90;102044.09;5013206;28;45468;-69
2021/08/17 01:17:37;;;;;;;;;8.75;8.25;;;;;27.58;38.66;102038.75;5013388;28;45514;-69
2021/08/17 01:20:03;;;;;;;;;7.00;7.00;;;;;27.59;38.78;102045.72;5014857;28;45769;-69
2021/08/17 01:22:28;;;;;;;;;8.75;8.75;;;;;27.53;39.17;102041.97;5013391;28;45244;-69
2021/08/17 01:24:55;;;;;;;;;7.50;6.25;;;;;27.48;38.98;102033.72;5016731;28;45389;-69
2021/08/17 01:27:20;;;;;;;;;9.00;8.00;;;;;27.56;38.69;102052.28;5015075;28;46323;-69
2021/08/17 01:29:45;;;;;;;;;8.25;8.00;;;;;27.57;39.15;102047.75;5015281;28;45325;-69
2021/08/17 01:32:14;;;;;;;;;9.50;8.50;;;;;27.56;38.86;102049.59;5017831;28;45885;-69
2021/08/17 01:34:39;;;;;;;;;7.50;7.25;;;;;27.55;38.67;102050.63;5017596;28;45632;-69
2021/08/17 01:37:05;;;;;;;;;9.00;8.75;;;;;27.54;38.70;102042.78;4995534;28;47587;-69
2021/08/17 01:39:30;;;;;;;;;10.25;8.50;;;;;27.55;38.47;102047.13;4995849;28;45466;-69
2021/08/17 01:41:56;;;;;;;;;7.25;6.75;;;;;27.54;38.60;102042.78;4995993;28;45292;-69
2021/08/17 01:44:21;;;;;;;;;8.25;8.25;;;;;27.54;39.11;102043.63;4996007;28;45346;-69
2021/08/17 01:46:47;;;;;;;;;8.00;6.75;;;;;27.45;38.55;102034.91;4997578;28;47100;-69
2021/08/17 01:49:17;;;;;;;;;8.25;7.25;;;;;27.53;39.05;102044.66;4995281;28;45523;-69
2021/08/17 01:51:44;;;;;;;;;8.50;8.50;;;;;27.53;39.23;102039.31;4995700;28;45508;-69
2021/08/17 01:54:09;;;;;;;;;9.50;7.75;;;;;27.51;39.08;102027.97;4995428;28;45417;-69
2021/08/17 01:56:34;;;;;;;;;6.25;6.00;;;;;27.52;38.85;102034.97;4995620;28;46052;-69
2021/08/17 01:59:03;;;;;;;;;8.75;8.75;;;;;27.51;39.20;102027.97;4993230;28;45272;-69
2021/08/17 02:01:28;;;;;;;;;8.00;7.75;;;;;27.51;38.97;102028.78;4995563;28;45376;-69
2021/08/17 02:03:53;;;;;;;;;9.50;7.75;;;;;27.51;38.76;102027.97;4995073;28;45484;-69
2021/08/17 02:06:19;;;;;;;;;7.75;7.50;;;;;27.51;38.98;102038.66;4993829;28;45497;-69
2021/08/17 02:08:44;;;;;;;;;9.75;9.75;;;;;27.50;39.14;102035.19;4993889;28;45438;-69
2021/08/17 02:11:09;;;;;;;;;6.50;6.00;;;;;27.51;39.12;102039.47;4996733;28;45507;-69
2021/08/17 02:13:35;;;;;;;;;8.50;8.50;;;;;27.52;38.67;102032.31;4995825;28;45421;-69
2021/08/17 02:16:01;;;;;;;;;10.50;7.00;;;;;27.50;39.01;102027.16;4994945;28;45563;-69
2021/08/17 02:18:32;;;;;;;;;8.00;6.25;;;;;27.54;39.17;102040.13;4994690;28;45318;-69
2021/08/17 02:20:58;;;;;;;;;7.50;7.50;;;;;27.53;39.09;102039.31;4995266;28;45483;-69
2021/08/17 02:23:24;;;;;;;;;6.50;6.00;;;;;27.44;38.49;102027.91;4995120;28;45409;-69
2021/08/17 02:25:49;;;;;;;;;7.50;6.75;;;;;27.55;38.90;102036.44;4996701;28;45323;-69
2021/08/17 02:28:15;;;;;;;;;6.50;6.50;;;;;27.54;38.54;102042.78;4994988;28;47402;-69
2021/08/17 02:30:40;;;;;;;;;9.00;6.00;;;;;27.54;38.83;102048.97;4994920;28;45325;-69
2021/08/17 02:33:07;;;;;;;;;9.50;8.25;;;;;27.54;39.13;102040.13;4994616;28;45432;-69
2021/08/17 02:35:32;;;;;;;;;6.80;6.00;;;;;27.55;38.63;102041.78;4944258;28;1171251;-69
2021/08/17 02:37:57;;;;;;;;;8.75;8.75;;;;;27.50;38.97;102040.53;5017184;28;45340;-69
2021/08/17 02:40:23;;;;;;;;;6.75;6.25;;;;;27.56;38.87;102043.44;5015789;28;45519;-69
2021/08/17 02:42:48;;;;;;;;;8.00;7.50;;;;;27.56;38.47;102051.47;5015539;28;45327;-69
2021/08/17 02:45:13;;;;;;;;;8.50;6.75;;;;;27.56;38.40;102038.09;5000692;28;47662;-69
2021/08/17 02:47:39;;;;;;;;;7.00;7.00;;;;;27.56;39.03;102046.94;5013778;28;45490;-69
2021/08/17 02:50:05;;;;;;;;;8.50;8.50;;;;;27.57;38.90;102047.75;5017439;28;45424;-69
2021/08/17 02:52:30;;;;;;;;;6.00;6.00;;;;;27.57;38.38;102042.41;5015870;28;45423;-69
2021/08/17 02:54:56;;;;;;;;;6.75;6.75;;;;;27.56;38.52;102046.94;5015033;28;45386;-69
2021/08/17 02:57:23;;;;;;;;;10.00;8.50;;;;;27.56;38.96;102046.13;5015231;28;45577;-69
2021/08/17 02:59:48;;;;;;;;;7.00;5.50;;;;;27.55;38.52;102044.47;5015539;28;45350;-69
2021/08/17 03:02:14;;;;;;;;;7.75;7.75;;;;;27.53;38.82;102036.63;5016020;28;45320;-69
2021/08/17 03:04:40;;;;;;;;;6.75;6.00;;;;;27.55;38.78;102039.13;5016291;28;46217;-69
2021/08/17 03:07:06;;;;;;;;;7.75;7.75;;;;;27.52;38.67;102024.28;5015105;28;45286;-69
2021/08/17 03:09:31;;;;;;;;;7.50;7.50;;;;;27.53;39.11;102031.28;5015075;28;45342;-69
2021/08/17 03:11:57;;;;;;;;;10.50;9.00;;;;;27.52;38.61;102038.47;4997528;28;45395;-69
2021/08/17 03:14:22;;;;;;;;;8.00;6.50;;;;;27.52;38.53;102029.63;5015071;28;46073;-69
2021/08/17 03:16:47;;;;;;;;;8.00;5.50;;;;;27.40;39.11;102011.41;5016706;28;45373;-69
2021/08/17 03:19:13;;;;;;;;;7.00;7.00;;;;;27.48;39.12;102020.34;5015204;28;45516;-69
2021/08/17 03:21:38;;;;;;;;;5.50;5.25;;;;;27.40;38.41;102011.41;5015117;28;45485;-69
2021/08/17 03:24:04;;;;;;;;;7.25;5.75;;;;;27.49;38.66;102024.66;5013487;28;46359;-69
2021/08/17 03:26:29;;;;;;;;;7.50;6.50;;;;;27.49;38.64;102025.50;5014273;28;45521;-68
2021/08/17 03:28:55;;;;;;;;;6.50;6.50;;;;;27.49;38.65;102020.13;5016163;28;45448;-69
2021/08/17 03:31:20;;;;;;;;;7.25;6.25;;;;;27.49;38.51;102021.97;5014475;28;45446;-69
2021/08/17 03:33:46;;;;;;;;;7.00;7.00;;;;;27.41;38.68;102006.88;5014557;28;46097;-69
2021/08/17 03:36:11;;;;;;;;;6.00;6.00;;;;;27.49;38.52;102024.66;5014438;28;45517;-69
2021/08/17 03:38:37;;;;;;;;;8.25;4.75;;;;;27.45;38.68;102015.38;5014986;28;45347;-69
2021/08/17 03:41:03;;;;;;;;;6.75;6.75;;;;;27.47;38.98;102011.50;5016845;28;45595;-69
2021/08/17 03:43:28;;;;;;;;;7.00;7.00;;;;;27.47;38.72;102014.16;5014414;28;46285;-69
2021/08/17 03:45:55;;;;;;;;;6.25;5.75;;;;;27.39;38.74;101999.06;5013268;28;45420;-69
2021/08/17 03:48:20;;;;;;;;;6.75;6.75;;;;;27.46;39.16;102006.31;5014710;28;45254;-69
2021/08/17 03:50:46;;;;;;;;;8.75;7.00;;;;;27.48;38.58;102001.63;5014573;28;45353;-69
2021/08/17 03:53:12;;;;;;;;;8.25;8.00;;;;;27.43;39.04;101996.84;5015687;28;47016;-69
2021/08/17 03:55:37;;;;;;;;;7.25;6.00;;;;;27.33;38.72;101978.44;5015511;28;45379;-69
2021/08/17 03:58:02;;;;;;;;;6.75;6.50;;;;;27.47;39.13;101998.13;5014446;28;45901;-69
2021/08/17 04:00:29;;;;;;;;;5.50;5.50;;;;;27.49;38.63;101998.75;5014043;28;45588;-69
2021/08/17 04:02:55;;;;;;;;;6.75;6.75;;;;;27.47;38.94;101994.63;5012893;28;45963;-69
2021/08/17 04:05:22;;;;;;;;;9.00;7.25;;;;;27.51;39.04;101995.88;5014806;28;45383;-69
2021/08/17 04:07:47;;;;;;;;;5.00;5.00;;;;;27.51;38.75;102004.75;5014514;28;45236;-69
2021/08/17 04:10:12;;;;;;;;;6.50;5.00;;;;;27.51;38.83;101998.56;5014174;28;45489;-69
2021/08/17 04:12:38;;;;;;;;;6.50;6.25;;;;;27.51;38.57;102003.91;5013928;28;46031;-69
2021/08/17 04:15:05;;;;;;;;;6.00;6.00;;;;;27.51;38.79;102003.91;5014017;28;45360;-69
2021/08/17 04:17:30;;;;;;;;;6.75;6.75;;;;;27.50;38.51;102005.78;5014274;28;45430;-69
2021/08/17 04:19:55;;;;;;;;;7.75;7.00;;;;;27.51;39.04;102007.41;5014831;28;45665;-69
2021/08/17 04:22:21;;;;;;;;;7.75;6.00;;;;;27.52;39.07;102000.22;5000574;28;46013;-69
2021/08/17 04:24:47;;;;;;;;;10.50;9.00;;;;;27.50;38.72;102002.25;5013825;28;45456;-69
2021/08/17 04:27:12;;;;;;;;;8.00;6.75;;;;;27.39;38.42;101979.53;5013687;28;45383;-68
2021/08/17 04:29:38;;;;;;;;;6.75;6.00;;;;;27.52;38.99;102005.56;5014089;28;45358;-69
2021/08/17 04:32:06;;;;;;;;;7.00;6.50;;;;;27.49;38.91;101998.75;5015822;28;46995;-69
2021/08/17 04:34:32;;;;;;;;;7.00;7.00;;;;;27.53;38.89;102009.91;5014218;28;45367;-69
2021/08/17 04:36:57;;;;;;;;;7.00;6.00;;;;;27.51;38.57;102010.09;5013659;28;45415;-69
2021/08/17 04:39:22;;;;;;;;;8.00;8.00;;;;;27.53;39.17;102001.91;5013928;28;45499;-69
2021/08/17 04:41:47;;;;;;;;;6.00;6.00;;;;;27.52;38.35;102003.72;5012134;28;46964;-69
2021/08/17 04:44:13;;;;;;;;;5.75;5.00;;;;;27.20;38.51;101947.06;5014471;28;45335;-69
2021/08/17 04:46:38;;;;;;;;;7.50;7.50;;;;;27.52;38.78;101997.56;5013415;28;45685;-69
2021/08/17 04:49:04;;;;;;;;;6.25;6.25;;;;;27.51;38.82;102007.41;5013678;28;45411;-69
2021/08/17 04:51:30;;;;;;;;;4.75;4.50;;;;;27.50;39.05;102004.94;5013507;28;45294;-69
2021/08/17 04:53:55;;;;;;;;;7.75;6.75;;;;;27.50;38.50;102004.94;5013672;28;45478;-69
2021/08/17 04:56:20;;;;;;;;;6.00;5.25;;;;;27.39;38.61;101985.72;5013365;28;45520;-69
2021/08/17 04:58:46;;;;;;;;;7.75;6.00;;;;;27.49;38.58;102005.94;5015481;28;45443;-69
2021/08/17 05:01:11;;;;;;;;;4.25;4.25;;;;;27.47;38.56;102006.16;5013426;28;45339;-69
2021/08/17 05:03:36;;;;;;;;;6.00;6.00;;;;;27.38;38.91;101993.91;5013443;28;45569;-69
2021/08/17 05:06:02;;;;;;;;;8.00;6.25;;;;;27.47;38.36;102008.81;4996307;28;45499;-69
2021/08/17 05:08:27;;;;;;;;;9.00;7.75;;;;;27.44;38.89;102008.34;5013598;28;45502;-70
2021/08/17 05:10:52;;;;;;;;;4.25;4.25;;;;;27.46;38.64;102015.16;5014996;28;46158;-69
2021/08/17 05:13:18;;;;;;;;;5.50;5.00;;;;;27.46;38.67;102015.16;5013231;28;46120;-70
2021/08/17 05:15:43;;;;;;;;;4.50;4.00;;;;;27.37;38.61;102002.94;5013350;28;45315;-69
2021/08/17 05:18:09;;;;;;;;;5.00;5.00;;;;;27.39;38.84;102003.59;5013294;28;45423;-69
2021/08/17 05:20:35;;;;;;;;;8.00;6.50;;;;;27.44;38.33;102030.56;5012050;28;46904;-69
2021/08/17 05:23:00;;;;;;;;;7.00;6.75;;;;;27.39;38.81;102031.16;5015083;28;45342;-69
2021/08/17 05:25:25;;;;;;;;;4.00;4.00;;;;;27.44;38.42;102033.25;5011279;28;45519;-69
2021/08/17 05:27:51;;;;;;;;;7.00;6.50;;;;;27.44;38.76;102032.41;5013160;28;45408;-69
2021/08/17 05:30:17;;;;;;;;;6.00;5.00;;;;;27.44;38.48;102029.75;5013039;28;46064;-69
2021/08/17 05:32:43;;;;;;;;;5.25;5.00;;;;;27.46;38.41;102031.19;5012944;28;45252;-69
2021/08/17 05:35:09;;;;;;;;;7.75;7.00;;;;;27.47;38.51;102035.53;5014542;28;45226;-69
2021/08/17 05:37:35;;;;;;;;;4.50;4.25;;;;;27.48;38.71;102042.53;5013008;28;45300;-69
2021/08/17 05:40:02;;;;;;;;;6.50;5.50;;;;;27.49;39.09;102048.72;5011437;28;45257;-69
2021/08/17 05:42:27;;;;;;;;;6.25;5.00;;;;;27.47;38.43;102045.41;5012929;28;45456;-70
2021/08/17 05:44:52;;;;;;;;;5.25;5.25;;;;;27.43;38.83;102039.59;5012888;28;45419;-69
2021/08/17 05:47:18;;;;;;;;;6.50;6.25;;;;;27.46;38.46;102044.56;5013697;28;45406;-69
2021/08/17 05:49:43;;;;;;;;;7.00;6.00;;;;;27.47;38.51;102043.56;5014477;28;45479;-69
2021/08/17 05:52:12;;;;;;;;;2.00;2.00;;;;;27.49;39.11;102046.03;5012732;28;45417;-69
2021/08/17 05:54:38;;;;;;;;;9.25;6.25;;;;;27.39;38.95;102033.81;5012707;28;45287;-69
2021/08/17 05:57:03;;;;;;;;;5.00;5.00;;;;;27.41;38.91;102033.63;5012742;28;45339;-69
2021/08/17 05:59:29;;;;;;;;;8.75;8.75;;;;;27.46;39.00;102039.22;5012387;28;45497;-69
2021/08/17 06:01:57;;;;;;;;;8.00;5.00;;;;;27.48;38.78;102045.19;5013868;28;45434;-69
2021/08/17 06:04:22;;;;;;;;;7.50;6.50;;;;;27.41;38.90;102033.63;5011128;28;45316;-69
2021/08/17 06:06:48;;;;;;;;;7.25;6.75;;;;;27.49;38.33;102054.88;5012685;28;46148;-69
2021/08/17 06:09:14;;;;;;;;;5.00;5.00;;;;;27.49;39.11;102054.06;5013123;28;47014;-69
2021/08/17 06:11:40;;;;;;;;;4.75;4.75;;;;;27.49;38.85;102057.56;5016125;28;45537;-69
2021/08/17 06:14:05;;;;;;;;;6.00;6.00;;;;;27.44;38.49;102046.59;5017888;28;45406;-69
2021/08/17 06:16:32;;;;;;;;;6.25;5.00;;;;;27.49;38.43;102052.22;5016276;28;45303;-69
2021/08/17 06:18:58;;;;;;;;;5.50;5.00;;;;;27.48;38.48;102053.22;5015857;28;46263;-69
2021/08/17 06:21:23;;;;;;;;;5.00;5.00;;;;;27.49;38.82;102054.88;5015965;28;45268;-69
2021/08/17 06:23:48;;;;;;;;;6.00;6.00;;;;;27.48;38.90;102047.88;5015791;28;45422;-69
2021/08/17 06:26:14;;;;;;;;;8.00;7.00;;;;;27.48;38.86;102055.88;5017078;28;45320;-69
2021/08/17 06:28:41;;;;;;;;;6.00;5.25;;;;;27.47;38.62;102062.28;5016848;28;45959;-69
2021/08/17 06:31:07;;;;;;;;;6.00;4.25;;;;;27.47;38.56;102061.44;5015670;28;45501;-69
2021/08/17 06:33:32;;;;;;;;;6.00;5.50;;;;;27.46;38.65;102060.59;5015718;28;45503;-69
2021/08/17 06:35:57;;;;;;;;;6.75;5.00;;;;;27.46;38.85;102065.94;5015683;28;45349;-69
2021/08/17 06:38:22;;;;;;;;;6.75;5.00;;;;;27.46;38.82;102073.13;5015738;28;47124;-69
2021/08/17 06:40:48;;;;;;;;;4.00;4.00;;;;;27.46;38.43;102068.63;5015870;28;45472;-69
2021/08/17 06:43:13;;;;;;;;;6.00;5.00;;;;;27.39;38.99;102057.03;5014152;28;45411;-69
2021/08/17 06:45:39;;;;;;;;;5.50;5.50;;;;;27.46;39.07;102060.59;5015540;28;46024;-69
2021/08/17 06:48:05;;;;;;;;;5.50;4.25;;;;;27.42;38.96;102058.50;5015463;28;47187;-69
2021/08/17 06:50:30;;;;;;;;;6.75;6.00;;;;;27.45;38.40;102071.50;5015587;28;45819;-69
2021/08/17 06:52:55;;;;;;;;;7.50;6.50;;;;;27.36;38.99;102044.03;5017205;28;45815;-69
2021/08/17 06:55:21;;;;;;;;;5.25;4.25;;;;;27.46;38.52;102060.59;5015384;28;45454;-69
2021/08/17 06:57:46;;;;;;;;;7.75;6.00;;;;;27.45;38.43;102068.81;5015156;28;46179;-69
2021/08/17 07:00:12;;;;;;;;;7.00;5.25;;;;;27.46;39.06;102076.63;5015325;28;45461;-69
2021/08/17 07:02:37;;;;;;;;;7.25;5.75;;;;;27.46;39.04;102075.81;5015509;28;45407;-69
2021/08/17 07:05:04;;;;;;;;;5.75;5.75;;;;;27.45;38.59;102076.84;5017516;28;45354;-69
2021/08/17 07:07:29;;;;;;;;;4.25;4.25;;;;;27.38;39.06;102061.53;5014629;28;47047;-69
2021/08/17 07:09:55;;;;;;;;;4.75;4.25;;;;;27.45;39.08;102079.50;5015044;28;45458;-68
2021/08/17 07:12:20;;;;;;;;;5.75;5.00;;;;;27.45;38.74;102084.84;5015124;28;45565;-69
2021/08/17 07:14:46;;;;;;;;;5.00;5.00;;;;;27.39;38.76;102071.22;5015168;28;45419;-69
2021/08/17 07:17:11;;;;;;;;;6.50;5.75;;;;;27.43;38.63;102079.69;5016318;28;46409;-69
2021/08/17 07:19:36;;;;;;;;;3.75;3.75;;;;;27.44;38.65;102081.34;5014206;28;45395;-69
2021/08/17 07:22:02;;;;;;;;;3.75;3.75;;;;;27.43;38.45;102079.69;5012157;28;45389;-69
2021/08/17 07:24:28;;;;;;;;;6.50;5.00;;;;;27.38;38.53;102069.56;5015015;28;45376;-69
2021/08/17 07:26:54;;;;;;;;;5.00;5.00;;;;;27.46;38.86;102086.50;5014884;28;46773;-68
2021/08/17 07:29:19;;;;;;;;;6.00;6.00;;;;;27.46;38.67;102090.00;5015113;28;45546;-69
2021/08/17 07:31:45;;;;;;;;;5.50;5.50;;;;;27.46;38.96;102090.00;5016732;28;45439;-69
2021/08/17 07:34:10;;;;;;;;;6.00;6.00;;;;;27.47;38.85;102090.84;5014828;28;45477;-69
2021/08/17 07:36:36;;;;;;;;;8.00;5.00;;;;;27.47;38.93;102088.16;5014206;28;45311;-69
2021/08/17 07:39:03;;;;;;;;;6.75;5.00;;;;;27.47;38.36;102085.50;5014711;28;45324;-69
2021/08/17 07:41:29;;;;;;;;;4.00;4.00;;;;;27.49;38.31;102094.16;5015013;28;45231;-69
2021/08/17 07:43:54;;;;;;;;;3.00;3.00;;;;;27.47;39.05;102085.50;5016614;28;45292;-69
2021/08/17 07:46:20;;;;;;;;;6.25;6.25;;;;;27.48;38.50;102092.50;5014403;28;47094;-69
2021/08/17 07:48:45;;;;;;;;;5.25;4.00;;;;;27.44;38.69;102089.38;5014381;28;45431;-69
2021/08/17 07:51:11;;;;;;;;;5.50;5.25;;;;;27.48;38.49;102084.50;5014166;28;45456;-69
2021/08/17 07:53:36;;;;;;;;;5.25;4.75;;;;;27.48;38.86;102084.50;5014584;28;45331;-69
2021/08/17 07:56:02;;;;;;;;;4.25;4.25;;;;;27.35;38.78;102061.91;5016358;28;46135;-69
2021/08/17 07:58:27;;;;;;;;;4.75;4.00;;;;;27.42;38.48;102069.19;5012894;28;45421;-69
2021/08/17 08:00:53;;;;;;;;;6.75;6.00;;;;;27.48;38.48;102082.63;5012511;28;45733;-69
2021/08/17 08:03:19;;;;;;;;;5.50;5.25;;;;;27.49;38.94;102089.63;5014379;28;45412;-69
2021/08/17 08:05:44;;;;;;;;;5.00;4.00;;;;;27.46;38.65;102081.16;5014019;28;46126;-69
2021/08/17 08:08:10;;;;;;;;;4.00;4.00;;;;;27.49;38.84;102092.31;5015601;28;45498;-69
2021/08/17 08:10:35;;;;;;;;;5.75;4.00;;;;;27.50;38.89;102085.13;5014989;28;45354;-69
2021/08/17 08:13:00;;;;;;;;;5.50;4.00;;;;;27.49;39.06;102091.47;5014027;28;45456;-69
2021/08/17 08:15:26;;;;;;;;;7.00;5.00;;;;;27.50;38.84;102085.97;5014175;28;45546;-69
2021/08/17 08:17:51;;;;;;;;;3.50;3.50;;;;;27.50;38.34;102088.63;5014152;28;45469;-69
2021/08/17 08:20:16;;;;;;;;;4.00;4.00;;;;;27.50;38.85;102083.28;5014624;28;45370;-69
2021/08/17 08:22:42;;;;;;;;;3.00;3.00;;;;;27.51;38.43;102086.75;5015593;28;45431;-69
2021/08/17 08:25:08;;;;;;;;;5.00;3.75;;;;;27.52;38.51;102086.59;5013875;28;45996;-70
2021/08/17 08:27:34;;;;;;;;;5.00;5.00;;;;;27.52;38.70;102088.44;5013932;28;45472;-69
2021/08/17 08:30:00;;;;;;;;;5.25;3.75;;;;;27.28;38.97;102053.81;5014109;28;45437;-69
2021/08/17 08:32:25;;;;;;;;;6.50;4.25;;;;;27.52;38.54;102099.94;4997050;28;49263;-69
2021/08/17 08:34:51;;;;;;;;;4.00;4.00;;;;;27.42;38.88;102077.22;5015331;28;45376;-69
2021/08/17 08:37:16;;;;;;;;;5.00;4.00;;;;;27.47;39.01;102074.81;5012415;28;47858;-69
2021/08/17 08:39:42;;;;;;;;;4.75;4.75;;;;;27.50;38.44;102087.78;5012310;28;45704;-69
2021/08/17 08:42:09;;;;;;;;;6.00;4.00;;;;;27.51;38.91;102090.25;5013707;28;45246;-69
2021/08/17 08:44:34;;;;;;;;;5.50;5.00;;;;;27.49;39.12;102080.78;4998028;28;45573;-69
2021/08/17 08:47:00;;;;;;;;;8.00;4.75;;;;;27.52;38.55;102094.59;5015494;28;45374;-69
2021/08/17 08:49:26;;;;;;;;;4.50;3.50;;;;;27.51;38.39;102081.41;5013355;28;45404;-69
2021/08/17 08:51:51;;;;;;;;;4.50;4.50;;;;;27.51;38.64;102084.91;5013862;28;45420;-69
2021/08/17 08:54:17;;;;;;;;;4.00;4.00;;;;;27.52;38.35;102085.75;5013317;28;47112;-69
2021/08/17 08:56:42;;;;;;;;;3.75;3.25;;;;;27.43;38.44;102066.31;5013449;28;46115;-69
2021/08/17 08:59:07;;;;;;;;;3.75;3.75;;;;;27.51;39.10;102079.56;5015360;28;45421;-69
2021/08/17 09:01:33;;;;;;;;;6.50;4.00;;;;;27.51;39.24;102087.59;5014074;28;45202;-69
2021/08/17 09:03:58;;;;;;;;;5.00;3.00;;;;;27.54;38.55;102086.38;5012968;28;45536;-69
2021/08/17 09:06:30;;;;;;;;;5.00;5.00;;;;;27.51;38.43;102084.91;5013401;28;45213;-69
2021/08/17 09:09:06;;;;;;;;;3.25;3.25;;;;;27.54;38.42;102082.88;5013599;28;45339;-69
2021/08/17 09:11:31;;;;;;;;;4.00;4.00;;;;;27.53;38.48;102087.41;5013385;28;45332;-69
2021/08/17 09:14:14;;;;;;;;;6.00;4.75;;;;;27.54;38.50;102091.75;5015186;28;46259;-69
2021/08/17 09:16:39;;;;;;;;;6.00;4.00;;;;;27.55;38.96;102093.41;5014251;28;45383;-70
2021/08/17 09:19:40;;;;;;;;;3.25;3.25;;;;;27.43;38.47;102070.84;5000869;28;45373;-69
2021/08/17 09:22:21;;;;;;;;;4.50;4.50;;;;;27.44;38.73;102081.34;5012885;28;45571;-69
2021/08/17 09:24:49;;;;;;;;;3.75;3.75;;;;;27.55;38.39;102097.91;5012949;28;46079;-69
2021/08/17 09:27:21;;;;;;;;;6.75;6.00;;;;;27.54;38.69;102098.91;5013071;28;45407;-69
2021/08/17 09:29:52;;;;;;;;;6.25;6.25;;;;;27.56;39.04;102099.59;5013395;28;45399;-69
2021/08/17 09:32:21;;;;;;;;;5.00;5.00;;;;;27.55;38.55;102103.25;5013323;28;45421;-69
2021/08/17 09:34:49;;;;;;;;;5.25;5.25;;;;;27.54;38.40;102098.91;5012511;28;46439;-69
2021/08/17 09:37:15;;;;;;;;;3.50;3.50;;;;;27.56;38.39;102094.25;5012933;28;45552;-69
2021/08/17 09:39:44;;;;;;;;;2.75;2.75;;;;;27.55;38.81;102092.56;5013036;28;45466;-69
2021/08/17 09:42:19;;;;;;;;;3.00;3.00;;;;;27.56;39.07;102092.38;5012951;28;45599;-69
2021/08/17 09:45:04;;;;;;;;;5.25;4.00;;;;;27.57;38.83;102079.84;5014672;28;46070;-69
2021/08/17 09:47:30;;;;;;;;;7.00;5.00;;;;;27.52;38.86;102075.06;5016116;28;45421;-69
2021/08/17 09:50:15;;;;;;;;;5.00;3.75;;;;;27.56;38.95;102078.19;5018421;28;45382;-69
2021/08/17 09:52:40;;;;;;;;;3.00;3.00;;;;;27.56;38.54;102079.00;5017480;28;45478;-69
2021/08/17 09:55:13;;;;;;;;;5.25;5.25;;;;;27.56;38.90;102076.34;5014696;28;45784;-69
2021/08/17 09:57:39;;;;;;;;;5.75;3.00;;;;;27.50;38.66;102064.56;5014317;28;45596;-69
2021/08/17 10:00:06;;;;;;;;;3.00;3.00;;;;;27.56;38.41;102068.31;5010586;28;45593;-69
2021/08/17 10:02:31;;;;;;;;;5.50;4.00;;;;;27.57;38.33;102063.81;5015955;28;45593;-69
2021/08/17 10:04:58;;;;;;;;;4.00;4.00;;;;;27.56;38.55;102062.97;5017867;28;47006;-69
2021/08/17 10:07:24;;;;;;;;;4.00;3.00;;;;;27.57;38.32;102063.81;5016001;28;45324;-69
2021/08/17 10:09:51;;;;;;;;;4.50;3.25;;;;;27.54;38.63;102058.81;5016027;28;45357;-69
2021/08/17 10:12:17;;;;;;;;;4.00;4.00;;;;;27.43;38.26;102036.91;5015725;28;45490;-69
2021/08/17 10:14:43;;;;;;;;;2.50;2.50;;;;;27.56;38.75;102056.81;5015880;28;46385;-69
2021/08/17 10:17:09;;;;;;;;;2.00;2.00;;;;;27.54;38.67;102042.78;5017324;28;45276;-69
2021/08/17 10:19:35;;;;;;;;;3.75;3.75;;;;;27.58;38.67;102057.44;5016712;28;45507;-69
2021/08/17 10:22:05;;;;;;;;;5.75;5.00;;;;;27.58;38.55;102050.25;5016167;28;45375;-69
2021/08/17 10:24:42;;;;;;;;;3.00;3.00;;;;;27.58;38.79;102055.59;5015795;28;45940;-69
2021/08/17 10:27:17;;;;;;;;;4.25;3.50;;;;;27.58;38.83;102052.94;5015917;28;45452;-69
2021/08/17 10:29:52;;;;;;;;;6.50;3.50;;;;;27.58;38.40;102058.28;5000824;28;45516;-69
2021/08/17 10:32:36;;;;;;;;;4.25;3.00;;;;;27.59;38.88;102046.56;5016761;28;45465;-69
2021/08/17 10:35:02;;;;;;;;;4.75;4.25;;;;;27.59;38.33;102048.41;5013051;28;46149;-69
2021/08/17 10:37:28;;;;;;;;;4.00;4.00;;;;;27.58;38.74;102057.44;5014024;28;45513;-69
2021/08/17 10:39:53;;;;;;;;;4.50;3.50;;;;;27.58;38.45;102044.91;5015679;28;45394;-69
2021/08/17 10:42:24;;;;;;;;;3.75;3.50;;;;;27.54;38.29;102048.13;5015628;28;45467;-69
2021/08/17 10:44:50;;;;;;;;;4.00;2.00;;;;;27.57;38.54;102051.28;5015143;28;46287;-69
2021/08/17 10:47:34;;;;;;;;;3.00;2.25;;;;;27.59;38.79;102048.41;5016413;28;45383;-69
2021/08/17 10:50:00;;;;;;;;;3.75;3.00;;;;;27.59;38.11;102040.38;5017186;28;45347;-69
2021/08/17 10:52:31;;;;;;;;;4.50;2.50;;;;;27.57;38.80;102034.41;5015347;28;45448;-69
2021/08/17 10:55:26;;;;;;;;;3.75;2.75;;;;;27.58;38.22;102031.56;5002811;28;46245;-69
2021/08/17 10:57:56;;;;;;;;;3.75;3.75;;;;;27.58;38.58;102028.88;5015210;28;45770;-69
2021/08/17 11:00:46;;;;;;;;;3.00;2.00;;;;;27.58;38.61;102044.09;5014958;28;45534;-69
2021/08/17 11:03:12;;;;;;;;;4.00;4.00;;;;;27.50;38.61;102024.47;5015174;28;45239;-69
2021/08/17 11:05:57;;;;;;;;;3.25;3.25;;;;;27.56;38.75;102028.22;5015170;28;46598;-69
2021/08/17 11:08:31;;;;;;;;;3.25;3.25;;;;;27.56;38.22;102030.88;5014806;28;45942;-69
2021/08/17 11:11:02;;;;;;;;;3.00;3.00;;;;;27.55;38.37;102028.41;5017085;28;45332;-69
2021/08/17 11:13:28;;;;;;;;;2.25;2.25;;;;;27.55;38.64;102029.25;5013227;28;45593;-69
2021/08/17 11:16:12;;;;;;;;;4.25;4.00;;;;;27.56;38.25;102032.75;5006703;28;47561;-69
2021/08/17 11:18:54;;;;;;;;;3.00;3.00;;;;;27.56;38.20;102030.09;5014971;28;45960;-69
2021/08/17 11:21:41;;;;;;;;;2.25;2.25;;;;;27.55;38.50;102033.75;5015184;28;45456;-69
2021/08/17 11:24:09;;;;;;;;;4.25;4.00;;;;;27.56;38.74;102022.06;5014883;28;45486;-69